This is the latest recevied weather packets stored in our database for station/object NK7I. If no packets are shown the sender has not sent any weather packets the latest 1 day(s).
| Time | Temp. | Humidity | Pressure | Rain* | Wind** | Luminosity | Snow |
|---|---|---|---|---|---|---|---|
| 1778103083 | 22.22° C | 41% | 1009.5 hPa | 0 mm | - | 475 W/m² | - |
| 1778102483 | 22.22° C | 40% | 1009.6 hPa | 0 mm | - | 489 W/m² | - |
| 1778091683 | 17.22° C | 48% | 1012.2 hPa | 0 mm | - | 1236 W/m² | - |
| 1778091382 | 16.67° C | 47% | 1012.3 hPa | 0 mm | - | 1225 W/m² | - |
| 1778088982 | 15.56° C | 48% | 1012.9 hPa | 0 mm | - | 418 W/m² | - |
| 1778087482 | 15° C | 55% | 1013.3 hPa | 0 mm | - | 1195 W/m² | - |
| 1778081783 | 11.67° C | 59% | 1014.3 hPa | 0 mm | - | 536 W/m² | - |
| 1778076982 | 5.56° C | 75% | 1014.6 hPa | 0 mm | - | 128 W/m² | - |
| 1778074583 | 4.44° C | 82% | 1014.6 hPa | 0 mm | - | 37 W/m² | - |
| 1778069182 | 4.44° C | 79% | 1014.1 hPa | 0 mm | - | 0 W/m² | - |
| 1778064683 | 5.56° C | 73% | 1013.9 hPa | 0 mm | - | 0 W/m² | - |
| 1778064382 | 5.56° C | 75% | 1013.9 hPa | 0 mm | - | 0 W/m² | - |
| 1778063183 | 5° C | 78% | 1013.8 hPa | 0 mm | - | 0 W/m² | - |
| 1778062883 | 5° C | 80% | 1013.7 hPa | 0 mm | - | 0 W/m² | - |
| 1778062583 | 5° C | 81% | 1013.7 hPa | 0 mm | - | 0 W/m² | - |
| 1778062283 | 5.56° C | 81% | 1013.7 hPa | 0 mm | - | 0 W/m² | - |
| 1778061983 | 5.56° C | 80% | 1013.6 hPa | 0 mm | - | 0 W/m² | - |
| 1778061683 | 5.56° C | 79% | 1013.5 hPa | 0 mm | - | 0 W/m² | - |
| 1778061084 | 5.56° C | 78% | 1013.4 hPa | 0 mm | - | 0 W/m² | - |
| 1778060483 | 6.11° C | 78% | 1013.4 hPa | 0 mm | - | 0 W/m² | - |
| 1778060183 | 6.11° C | 77% | 1013.3 hPa | 0 mm | - | 0 W/m² | - |
| 1778059883 | 6.11° C | 76% | 1013.4 hPa | 0 mm | - | 0 W/m² | - |
| 1778059582 | 6.11° C | 76% | 1013.4 hPa | 0 mm | - | 0 W/m² | - |
| 1778059283 | 6.67° C | 75% | 1013.5 hPa | 0 mm | - | 0 W/m² | - |
| 1778058683 | 6.67° C | 74% | 1013.4 hPa | 0 mm | - | 0 W/m² | - |
* Rain latest hour (hover to see other rain measurements)
** Current wind speed in m/s (hover to see current wind gust speed)